createdAt,value
2023-04-09T00:01:36.158Z,6.00
2023-04-09T00:04:02.814Z,5.90
2023-04-09T00:06:31.138Z,8.98
2023-04-09T00:08:58.445Z,7.88
2023-04-09T00:11:25.071Z,5.65
2023-04-09T00:13:51.770Z,5.05
2023-04-09T00:16:18.384Z,3.45
2023-04-09T00:18:44.918Z,4.63
2023-04-09T00:21:11.523Z,6.22
2023-04-09T00:23:38.659Z,3.47
2023-04-09T00:26:05.493Z,3.08
2023-04-09T00:28:32.074Z,5.10
2023-04-09T00:30:58.616Z,4.72
2023-04-09T00:33:25.787Z,3.55
2023-04-09T00:35:52.459Z,2.53
2023-04-09T00:38:19.061Z,4.53
2023-04-09T00:40:50.387Z,3.20
2023-04-09T00:43:19.944Z,8.07
2023-04-09T00:45:46.517Z,6.50
2023-04-09T00:48:14.184Z,3.95
2023-04-09T00:50:41.994Z,3.08
2023-04-09T00:53:09.228Z,5.78
2023-04-09T00:55:36.516Z,4.55
2023-04-09T00:58:03.263Z,4.13
2023-04-09T01:00:29.846Z,5.72
2023-04-09T01:02:58.167Z,6.57
2023-04-09T01:05:49.846Z,2.80
2023-04-09T01:08:46.684Z,4.63
2023-04-09T01:11:27.342Z,3.55
2023-04-09T01:13:59.702Z,7.10
2023-04-09T01:16:27.329Z,4.65
2023-04-09T01:19:02.449Z,4.15
2023-04-09T01:21:34.340Z,4.53
2023-04-09T01:24:25.191Z,6.32
2023-04-09T01:27:03.278Z,4.75
2023-04-09T01:29:33.598Z,3.67
2023-04-09T01:32:03.505Z,4.90
2023-04-09T01:34:31.092Z,5.25
2023-04-09T01:37:01.005Z,3.40
2023-04-09T01:39:28.099Z,7.00
2023-04-09T01:41:56.272Z,3.45
2023-04-09T01:44:24.585Z,4.05
2023-04-09T01:46:51.892Z,5.05
2023-04-09T01:49:19.571Z,3.13
2023-04-09T01:51:47.486Z,2.33
2023-04-09T01:54:14.251Z,3.92
2023-04-09T01:56:45.611Z,2.38
2023-04-09T01:59:12.766Z,5.68
2023-04-09T02:01:46.491Z,2.53
2023-04-09T02:04:36.966Z,3.83
2023-04-09T02:07:09.206Z,2.35
2023-04-09T02:09:39.397Z,2.92
2023-04-09T02:12:10.709Z,2.95
2023-04-09T02:14:38.780Z,3.35
2023-04-09T02:17:06.123Z,2.00
2023-04-09T02:19:44.682Z,3.45
2023-04-09T02:22:12.423Z,2.55
2023-04-09T02:24:40.458Z,4.20
2023-04-09T02:27:07.830Z,4.25
2023-04-09T02:29:34.490Z,4.10
2023-04-09T02:32:01.354Z,4.40
2023-04-09T02:34:28.272Z,2.95
2023-04-09T02:36:54.801Z,2.03
2023-04-09T02:39:21.326Z,4.50
2023-04-09T02:41:47.920Z,4.55
2023-04-09T02:44:14.519Z,2.70
2023-04-09T02:46:41.995Z,2.20
2023-04-09T02:49:09.436Z,2.13
2023-04-09T02:51:36.284Z,3.20
2023-04-09T02:54:03.876Z,6.07
2023-04-09T02:56:30.620Z,1.77
2023-04-09T02:58:57.177Z,1.65
2023-04-09T03:01:23.814Z,1.33
2023-04-09T03:03:50.743Z,6.80
2023-04-09T03:06:18.668Z,4.75
2023-04-09T03:08:45.602Z,2.47
2023-04-09T03:11:12.152Z,3.78
2023-04-09T03:13:38.805Z,2.00
2023-04-09T03:16:06.620Z,1.65
2023-04-09T03:18:33.337Z,2.13
2023-04-09T03:20:59.948Z,3.33
2023-04-09T03:23:26.538Z,1.52
2023-04-09T03:26:06.266Z,1.80
2023-04-09T03:28:33.430Z,3.20
2023-04-09T03:31:00.149Z,1.23
2023-04-09T03:33:26.794Z,3.58
2023-04-09T03:35:53.404Z,2.35
2023-04-09T03:38:20.136Z,2.22
2023-04-09T03:40:46.763Z,4.38
2023-04-09T03:43:13.436Z,2.45
2023-04-09T03:45:40.041Z,5.45
2023-04-09T03:48:06.853Z,2.25
2023-04-09T03:50:39.405Z,3.03
2023-04-09T03:53:06.111Z,2.42
2023-04-09T03:55:32.709Z,2.22
2023-04-09T03:57:59.266Z,2.25
2023-04-09T04:00:28.503Z,1.35
2023-04-09T04:02:55.173Z,4.65
2023-04-09T04:05:25.480Z,1.98
2023-04-09T04:07:52.278Z,2.70
2023-04-09T04:10:18.870Z,4.68
2023-04-09T04:12:45.977Z,1.95
2023-04-09T04:15:12.723Z,2.63
2023-04-09T04:17:39.309Z,5.63
2023-04-09T04:20:06.533Z,2.85
2023-04-09T04:22:34.691Z,2.10
2023-04-09T04:25:01.223Z,2.13
2023-04-09T04:27:27.833Z,2.05
2023-04-09T04:29:54.412Z,3.05
2023-04-09T04:32:21.258Z,2.08
2023-04-09T04:34:50.579Z,2.47
2023-04-09T04:37:17.111Z,2.45
2023-04-09T04:39:44.136Z,2.58
2023-04-09T04:42:10.780Z,3.90
2023-04-09T04:44:37.337Z,3.33
2023-04-09T04:47:03.863Z,7.15
2023-04-09T04:49:31.616Z,9.45
2023-04-09T04:51:58.173Z,5.63
2023-04-09T04:54:24.883Z,6.05
2023-04-09T04:56:51.456Z,5.60
2023-04-09T04:59:18.125Z,9.57
2023-04-09T05:01:44.702Z,5.03
2023-04-09T05:04:11.559Z,3.83
2023-04-09T05:06:38.144Z,3.47
2023-04-09T05:09:04.689Z,4.13
2023-04-09T05:11:31.212Z,2.00
2023-04-09T05:13:57.757Z,4.90
2023-04-09T05:16:24.345Z,4.20
2023-04-09T05:18:51.324Z,5.93
2023-04-09T05:21:18.179Z,2.88
2023-04-09T05:23:44.697Z,3.13
2023-04-09T05:26:11.480Z,5.03
2023-04-09T05:28:38.726Z,2.55
2023-04-09T05:31:05.512Z,2.35
2023-04-09T05:33:37.727Z,1.92
2023-04-09T05:36:04.706Z,3.70
2023-04-09T05:38:31.392Z,6.10
2023-04-09T05:40:57.949Z,2.53
2023-04-09T05:43:24.763Z,2.28
2023-04-09T05:45:51.576Z,4.32
2023-04-09T05:48:19.697Z,5.45
2023-04-09T05:50:55.222Z,2.35
2023-04-09T05:53:22.652Z,2.65
2023-04-09T05:55:49.707Z,5.18
2023-04-09T05:58:16.252Z,3.70
2023-04-09T06:00:42.786Z,4.72
2023-04-09T06:03:09.896Z,2.55
2023-04-09T06:05:36.865Z,3.63
2023-04-09T06:08:03.516Z,2.63
2023-04-09T06:10:32.810Z,3.78
2023-04-09T06:12:59.360Z,5.05
2023-04-09T06:15:26.062Z,4.35
2023-04-09T06:17:52.751Z,7.15
2023-04-09T06:20:20.143Z,16.33
2023-04-09T06:22:46.652Z,8.48
2023-04-09T06:25:13.254Z,7.95
2023-04-09T06:27:39.821Z,18.73
2023-04-09T06:30:07.030Z,13.15
2023-04-09T06:32:37.650Z,11.25
2023-04-09T06:35:11.083Z,3.78
2023-04-09T06:37:37.712Z,6.03
2023-04-09T06:40:04.559Z,4.18
2023-04-09T06:42:31.160Z,2.83
2023-04-09T06:44:57.731Z,4.82
2023-04-09T06:47:24.361Z,1.33
2023-04-09T06:49:51.386Z,4.63
2023-04-09T06:52:17.961Z,2.03
2023-04-09T06:54:45.948Z,2.83
2023-04-09T06:57:12.566Z,2.63
2023-04-09T06:59:39.090Z,3.28
2023-04-09T07:02:06.165Z,2.95
2023-04-09T07:04:32.933Z,2.47
2023-04-09T07:07:00.147Z,1.50
2023-04-09T07:09:26.662Z,5.47
2023-04-09T07:11:53.363Z,4.30
2023-04-09T07:14:19.864Z,4.35
2023-04-09T07:16:46.625Z,5.97
2023-04-09T07:19:13.267Z,4.53
2023-04-09T07:21:39.865Z,2.97
2023-04-09T07:24:06.754Z,4.03
2023-04-09T07:26:33.460Z,5.70
2023-04-09T07:29:00.029Z,2.53
2023-04-09T07:31:27.097Z,2.72
2023-04-09T07:33:54.276Z,4.10
2023-04-09T07:36:21.256Z,3.75
2023-04-09T07:38:47.791Z,2.60
2023-04-09T07:41:14.550Z,3.05
2023-04-09T07:43:41.443Z,2.05
2023-04-09T07:46:07.997Z,7.22
2023-04-09T07:48:34.556Z,7.05
2023-04-09T07:51:01.218Z,8.05
2023-04-09T07:53:28.488Z,4.95
2023-04-09T07:55:55.321Z,3.75
2023-04-09T07:58:22.292Z,2.95
2023-04-09T08:00:49.169Z,3.47
2023-04-09T08:03:15.893Z,2.15
2023-04-09T08:05:42.618Z,1.92
2023-04-09T08:08:09.116Z,1.52
2023-04-09T08:10:35.841Z,1.38
2023-04-09T08:13:02.366Z,3.17
2023-04-09T08:15:29.030Z,1.42
2023-04-09T08:17:55.633Z,1.23
2023-04-09T08:20:22.360Z,1.25
2023-04-09T08:22:48.923Z,1.50
2023-04-09T08:25:15.465Z,0.75
2023-04-09T08:27:42.064Z,3.80
2023-04-09T08:30:09.308Z,3.10
2023-04-09T08:32:36.351Z,1.10
2023-04-09T08:35:03.029Z,1.02
2023-04-09T08:37:30.140Z,2.60
2023-04-09T08:39:56.715Z,4.82
2023-04-09T08:42:26.053Z,2.53
2023-04-09T08:44:52.965Z,3.28
2023-04-09T08:47:21.061Z,3.20
2023-04-09T08:49:50.229Z,4.47
2023-04-09T08:52:19.198Z,1.95
2023-04-09T08:54:46.992Z,4.90
2023-04-09T08:57:14.126Z,1.13
2023-04-09T08:59:40.805Z,5.88
2023-04-09T09:02:11.708Z,3.65
2023-04-09T09:04:50.372Z,2.97
2023-04-09T09:07:17.529Z,2.47
2023-04-09T09:09:58.109Z,2.35
2023-04-09T09:12:39.101Z,1.50
2023-04-09T09:15:26.942Z,1.90
2023-04-09T09:17:58.767Z,4.25
2023-04-09T09:20:27.223Z,1.05
2023-04-09T09:22:55.874Z,2.15
2023-04-09T09:25:26.781Z,2.40
2023-04-09T09:27:54.581Z,1.77
2023-04-09T09:30:27.175Z,4.70
2023-04-09T09:33:06.257Z,2.15
2023-04-09T09:35:54.650Z,4.30
2023-04-09T09:38:21.704Z,6.30
2023-04-09T09:40:50.060Z,3.83
2023-04-09T09:43:16.699Z,1.77
2023-04-09T09:45:44.435Z,2.58
2023-04-09T09:48:12.876Z,0.93
2023-04-09T09:50:43.466Z,1.05
2023-04-09T09:53:11.845Z,4.45
2023-04-09T09:55:40.538Z,1.13
2023-04-09T09:58:19.739Z,4.85
2023-04-09T10:00:48.809Z,4.10
2023-04-09T10:03:21.299Z,2.45
2023-04-09T10:05:49.373Z,3.95
2023-04-09T10:08:16.661Z,3.88
2023-04-09T10:10:43.713Z,3.00
2023-04-09T10:13:21.762Z,2.70
2023-04-09T10:15:49.071Z,0.70
2023-04-09T10:18:16.593Z,7.25
2023-04-09T10:20:52.772Z,1.98
2023-04-09T10:23:36.383Z,2.90
2023-04-09T10:26:03.297Z,1.52
2023-04-09T10:28:31.124Z,4.07
2023-04-09T10:30:59.086Z,1.75
2023-04-09T10:33:28.253Z,1.05
2023-04-09T10:35:59.746Z,1.80
2023-04-09T10:38:38.612Z,1.40
2023-04-09T10:41:13.882Z,4.68
2023-04-09T10:43:41.173Z,2.75
2023-04-09T10:46:26.710Z,1.13
2023-04-09T10:49:19.052Z,1.40
2023-04-09T10:51:51.962Z,1.05
2023-04-09T10:54:33.902Z,1.30
2023-04-09T10:57:09.236Z,0.95
2023-04-09T10:59:37.993Z,2.45
2023-04-09T11:02:21.178Z,4.57
2023-04-09T11:05:25.366Z,1.00
2023-04-09T11:08:12.365Z,1.65
2023-04-09T11:10:41.251Z,1.20
2023-04-09T11:13:12.168Z,1.20
2023-04-09T11:15:39.272Z,1.30
2023-04-09T11:18:07.747Z,1.40
2023-04-09T11:20:34.705Z,0.77
2023-04-09T11:23:02.356Z,0.77
2023-04-09T11:25:31.917Z,1.58
2023-04-09T11:27:58.838Z,2.58
2023-04-09T11:30:26.307Z,4.97
2023-04-09T11:32:53.612Z,1.13
2023-04-09T11:35:22.170Z,0.60
2023-04-09T11:37:50.285Z,0.85
2023-04-09T11:40:22.166Z,1.05
2023-04-09T11:42:51.066Z,3.42
2023-04-09T11:45:18.932Z,2.28
2023-04-09T11:47:47.293Z,1.33
2023-04-09T11:50:15.565Z,2.85
2023-04-09T11:52:43.239Z,0.80
2023-04-09T11:55:10.935Z,1.10
2023-04-09T11:57:43.421Z,1.38
2023-04-09T12:00:15.470Z,1.48
2023-04-09T12:02:47.094Z,1.73
2023-04-09T12:05:22.214Z,1.05
2023-04-09T12:07:56.448Z,1.17
2023-04-09T12:10:28.048Z,2.58
2023-04-09T12:12:54.711Z,1.27
2023-04-09T12:15:25.498Z,0.85
2023-04-09T12:17:54.891Z,1.83
2023-04-09T12:20:31.688Z,5.18
2023-04-09T12:23:00.334Z,0.40
2023-04-09T12:25:27.933Z,3.08
2023-04-09T12:27:56.129Z,1.52
2023-04-09T12:30:24.025Z,1.05
2023-04-09T12:32:50.935Z,1.55
2023-04-09T12:35:17.698Z,0.70
2023-04-09T12:37:44.796Z,0.75
2023-04-09T12:40:14.046Z,1.48
2023-04-09T12:42:42.097Z,1.02
2023-04-09T12:45:10.593Z,4.88
2023-04-09T12:47:37.818Z,2.85
2023-04-09T12:50:04.687Z,0.85
2023-04-09T12:52:31.338Z,1.10
2023-04-09T12:54:57.890Z,1.15
2023-04-09T12:57:24.505Z,1.95
2023-04-09T12:59:51.083Z,1.23
2023-04-09T13:02:17.835Z,0.98
2023-04-09T13:04:44.631Z,0.57
2023-04-09T13:07:13.246Z,5.28
2023-04-09T13:09:39.735Z,0.73
2023-04-09T13:12:06.714Z,3.58
2023-04-09T13:14:33.366Z,1.80
2023-04-09T13:17:00.024Z,2.35
2023-04-09T13:19:26.619Z,0.95
2023-04-09T13:21:53.204Z,0.70
2023-04-09T13:24:19.749Z,3.85
2023-04-09T13:26:46.380Z,1.42
2023-04-09T13:29:13.355Z,1.17
2023-04-09T13:31:39.877Z,1.17
2023-04-09T13:34:06.657Z,0.40
2023-04-09T13:36:34.508Z,3.55
2023-04-09T13:39:06.631Z,1.02
2023-04-09T13:41:33.954Z,2.10
2023-04-09T13:44:00.899Z,1.55
2023-04-09T13:46:28.246Z,2.95
2023-04-09T13:48:55.308Z,1.00
2023-04-09T13:51:22.859Z,0.95
2023-04-09T13:53:50.805Z,2.95
2023-04-09T13:56:17.364Z,4.82
2023-04-09T13:58:45.063Z,0.55
2023-04-09T14:01:12.045Z,0.77
2023-04-09T14:03:40.224Z,4.90
2023-04-09T14:06:08.734Z,1.10
2023-04-09T14:08:36.308Z,1.02
2023-04-09T14:11:03.052Z,1.70
2023-04-09T14:13:30.104Z,1.38
2023-04-09T14:15:58.603Z,1.13
2023-04-09T14:18:26.512Z,2.75
2023-04-09T14:20:53.064Z,1.10
2023-04-09T14:23:19.573Z,2.28
2023-04-09T14:25:46.138Z,2.42
2023-04-09T14:28:12.778Z,1.55
2023-04-09T14:30:39.345Z,8.88
2023-04-09T14:33:05.936Z,0.80
2023-04-09T14:35:32.963Z,0.95
2023-04-09T14:37:59.592Z,6.22
2023-04-09T14:40:26.127Z,0.57
2023-04-09T14:42:52.653Z,1.98
2023-04-09T14:45:19.183Z,2.83
2023-04-09T14:47:46.048Z,5.38
2023-04-09T14:50:12.926Z,0.40
2023-04-09T14:52:39.584Z,1.25
2023-04-09T14:55:12.161Z,1.05
2023-04-09T14:57:39.822Z,2.60
2023-04-09T15:00:08.240Z,1.55
2023-04-09T15:02:41.477Z,0.65
2023-04-09T15:05:08.846Z,0.73
2023-04-09T15:07:35.370Z,0.35
2023-04-09T15:10:01.934Z,1.33
2023-04-09T15:12:30.625Z,1.70
2023-04-09T15:14:57.449Z,2.13
2023-04-09T15:17:24.994Z,0.85
2023-04-09T15:19:55.086Z,0.55
2023-04-09T15:22:21.682Z,0.90
2023-04-09T15:24:48.207Z,0.70
2023-04-09T15:27:16.118Z,3.85
2023-04-09T15:29:43.652Z,1.20
2023-04-09T15:32:10.584Z,1.20
2023-04-09T15:34:37.215Z,1.15
2023-04-09T15:37:03.805Z,0.28
2023-04-09T15:39:32.392Z,1.05
2023-04-09T15:41:59.080Z,3.88
2023-04-09T15:44:25.915Z,2.38
2023-04-09T15:46:52.572Z,1.00
2023-04-09T15:49:19.893Z,0.70
2023-04-09T15:51:46.611Z,0.60
2023-04-09T15:54:13.312Z,0.82
2023-04-09T15:56:40.470Z,0.43
2023-04-09T15:59:08.419Z,0.82
2023-04-09T16:01:36.445Z,0.80
2023-04-09T16:04:04.452Z,0.50
2023-04-09T16:06:31.415Z,0.93
2023-04-09T16:08:57.961Z,0.88
2023-04-09T16:11:24.530Z,0.90
2023-04-09T16:13:51.115Z,0.63
2023-04-09T16:16:17.713Z,0.77
2023-04-09T16:18:44.715Z,1.60
2023-04-09T16:21:11.307Z,4.60
2023-04-09T16:23:38.511Z,3.60
2023-04-09T16:26:05.615Z,0.75
2023-04-09T16:28:32.307Z,0.98
2023-04-09T16:30:59.518Z,2.63
2023-04-09T16:33:26.277Z,1.33
2023-04-09T16:35:53.051Z,0.88
2023-04-09T16:38:19.657Z,0.30
2023-04-09T16:40:46.386Z,2.25
2023-04-09T16:43:12.968Z,1.55
2023-04-09T16:45:39.563Z,0.60
2023-04-09T16:48:11.479Z,0.68
2023-04-09T16:50:39.701Z,2.05
2023-04-09T16:53:06.590Z,0.82
2023-04-09T16:55:34.527Z,2.15
2023-04-09T16:58:01.111Z,1.27
2023-04-09T17:00:27.771Z,1.17
2023-04-09T17:02:56.036Z,0.43
2023-04-09T17:05:22.880Z,0.28
2023-04-09T17:07:49.496Z,2.03
2023-04-09T17:10:16.643Z,1.27
2023-04-09T17:12:44.364Z,2.80
2023-04-09T17:15:11.405Z,1.17
2023-04-09T17:17:38.216Z,1.90
2023-04-09T17:20:05.856Z,1.48
2023-04-09T17:22:32.443Z,0.63
2023-04-09T17:24:59.100Z,0.65
2023-04-09T17:27:25.678Z,0.80
2023-04-09T17:29:53.747Z,1.85
2023-04-09T17:32:20.432Z,1.25
2023-04-09T17:34:51.370Z,1.02
2023-04-09T17:37:18.272Z,1.65
2023-04-09T17:39:44.784Z,1.20
2023-04-09T17:42:14.197Z,1.00
2023-04-09T17:44:43.669Z,1.02
2023-04-09T17:47:12.353Z,2.03
2023-04-09T17:49:39.464Z,0.90
2023-04-09T17:52:06.248Z,0.70
2023-04-09T17:54:36.739Z,0.63
2023-04-09T17:57:04.604Z,2.67
2023-04-09T17:59:32.670Z,1.55
2023-04-09T18:01:59.364Z,0.77
2023-04-09T18:04:27.069Z,1.70
2023-04-09T18:06:54.967Z,1.17
2023-04-09T18:09:21.483Z,1.05
2023-04-09T18:11:49.655Z,1.83
2023-04-09T18:14:16.309Z,3.00
2023-04-09T18:16:42.990Z,0.85
2023-04-09T18:19:11.864Z,1.40
2023-04-09T18:21:38.767Z,4.78
2023-04-09T18:24:05.614Z,3.28
2023-04-09T18:26:33.866Z,1.70
2023-04-09T18:29:01.467Z,2.85
2023-04-09T18:31:28.488Z,1.98
2023-04-09T18:33:55.288Z,7.80
2023-04-09T18:36:21.864Z,5.03
2023-04-09T18:38:48.882Z,3.90
2023-04-09T18:41:22.690Z,1.88
2023-04-09T18:43:49.303Z,1.83
2023-04-09T18:46:15.952Z,7.18
2023-04-09T18:48:47.112Z,6.60
2023-04-09T18:51:14.618Z,4.65
2023-04-09T18:53:41.917Z,6.13
2023-04-09T18:56:08.654Z,2.33
2023-04-09T18:58:36.120Z,3.65
2023-04-09T19:01:12.169Z,3.33
2023-04-09T19:03:40.184Z,4.20
2023-04-09T19:06:14.834Z,3.55
2023-04-09T19:08:41.641Z,5.13
2023-04-09T19:11:08.186Z,4.75
2023-04-09T19:13:35.233Z,3.38
2023-04-09T19:16:02.294Z,2.83
2023-04-09T19:18:29.231Z,5.97
2023-04-09T19:20:55.882Z,5.30
2023-04-09T19:23:22.765Z,5.18
2023-04-09T19:25:55.188Z,3.38
2023-04-09T19:28:23.116Z,3.42
2023-04-09T19:30:52.681Z,6.18
2023-04-09T19:33:24.250Z,3.53
2023-04-09T19:35:52.044Z,7.63
2023-04-09T19:38:19.429Z,2.97
2023-04-09T19:40:46.472Z,6.20
2023-04-09T19:43:13.838Z,5.57
2023-04-09T19:45:41.038Z,5.30
2023-04-09T19:48:07.682Z,4.68
2023-04-09T19:50:38.991Z,6.50
2023-04-09T19:53:06.114Z,7.70
2023-04-09T19:55:35.962Z,7.75
2023-04-09T19:58:03.508Z,3.05
2023-04-09T20:00:30.621Z,3.53
2023-04-09T20:02:57.754Z,3.45
2023-04-09T20:05:25.020Z,4.55
2023-04-09T20:07:52.856Z,4.25
2023-04-09T20:10:20.003Z,3.58
2023-04-09T20:12:47.890Z,3.55
2023-04-09T20:15:15.549Z,2.35
2023-04-09T20:17:42.720Z,3.17
2023-04-09T20:20:09.577Z,1.95
2023-04-09T20:22:36.447Z,1.88
2023-04-09T20:25:03.041Z,2.45
2023-04-09T20:27:29.620Z,4.13
2023-04-09T20:29:56.710Z,4.50
2023-04-09T20:32:23.413Z,4.60
2023-04-09T20:34:50.091Z,4.45
2023-04-09T20:37:16.767Z,4.30
2023-04-09T20:39:43.497Z,7.30
2023-04-09T20:42:10.018Z,6.53
2023-04-09T20:44:36.650Z,3.85
2023-04-09T20:47:03.241Z,3.35
2023-04-09T20:49:29.866Z,2.83
2023-04-09T20:51:57.085Z,3.17
2023-04-09T20:54:23.660Z,2.65
2023-04-09T20:56:50.316Z,5.28
2023-04-09T20:59:17.256Z,4.22
2023-04-09T21:01:44.127Z,7.70
2023-04-09T21:04:11.158Z,5.88
2023-04-09T21:06:37.836Z,9.00
2023-04-09T21:09:04.412Z,7.45
2023-04-09T21:11:31.254Z,8.27
2023-04-09T21:13:59.120Z,8.85
2023-04-09T21:16:28.885Z,10.75
2023-04-09T21:18:55.817Z,11.85
2023-04-09T21:21:22.591Z,10.05
2023-04-09T21:23:49.183Z,14.60
2023-04-09T21:26:15.770Z,10.68
2023-04-09T21:28:42.313Z,9.80
2023-04-09T21:31:11.166Z,9.23
2023-04-09T21:33:39.282Z,8.70
2023-04-09T21:36:07.800Z,9.90
2023-04-09T21:38:34.704Z,11.00
2023-04-09T21:41:01.863Z,8.05
2023-04-09T21:43:29.222Z,8.93
2023-04-09T21:45:59.174Z,7.30
2023-04-09T21:48:26.530Z,9.88
2023-04-09T21:50:53.071Z,7.88
2023-04-09T21:53:19.627Z,5.22
2023-04-09T21:55:46.132Z,8.68
2023-04-09T21:58:12.765Z,9.75
2023-04-09T22:00:39.338Z,7.40
2023-04-09T22:03:06.191Z,4.35
2023-04-09T22:05:36.554Z,5.38
2023-04-09T22:08:03.405Z,6.30
2023-04-09T22:10:30.014Z,4.88
2023-04-09T22:12:56.713Z,4.50
2023-04-09T22:15:23.323Z,9.65
2023-04-09T22:17:49.940Z,4.18
2023-04-09T22:20:16.678Z,4.88
2023-04-09T22:22:43.383Z,4.82
2023-04-09T22:25:11.715Z,10.05
2023-04-09T22:27:38.427Z,6.50
2023-04-09T22:30:05.747Z,7.00
2023-04-09T22:32:33.619Z,6.60
2023-04-09T22:35:00.317Z,12.05
2023-04-09T22:37:27.864Z,8.60
2023-04-09T22:39:54.609Z,5.53
2023-04-09T22:42:21.519Z,5.53
2023-04-09T22:44:48.101Z,5.63
2023-04-09T22:47:14.627Z,6.07
2023-04-09T22:49:41.182Z,6.63
2023-04-09T22:52:08.411Z,5.50
2023-04-09T22:54:35.654Z,7.65
2023-04-09T22:57:02.315Z,9.63
2023-04-09T22:59:39.004Z,11.45
2023-04-09T23:02:06.444Z,6.43
2023-04-09T23:04:34.999Z,8.05
2023-04-09T23:07:02.479Z,6.95
2023-04-09T23:09:30.965Z,6.07
2023-04-09T23:11:57.630Z,8.50
2023-04-09T23:14:24.160Z,5.53
2023-04-09T23:16:50.911Z,11.18
2023-04-09T23:19:17.481Z,6.40
2023-04-09T23:21:44.020Z,3.53
2023-04-09T23:24:10.685Z,6.60
2023-04-09T23:26:37.525Z,5.13
2023-04-09T23:29:04.044Z,5.25
2023-04-09T23:31:30.606Z,6.57
2023-04-09T23:33:57.182Z,3.08
2023-04-09T23:36:24.361Z,4.65
2023-04-09T23:38:51.252Z,5.32
2023-04-09T23:41:17.871Z,4.72
2023-04-09T23:43:44.495Z,4.18
2023-04-09T23:46:11.255Z,2.83
2023-04-09T23:48:38.462Z,3.10
2023-04-09T23:51:05.268Z,5.63
2023-04-09T23:53:31.794Z,7.63
2023-04-09T23:55:58.634Z,3.90
2023-04-09T23:58:25.512Z,4.80
